sensor_id;sensor_type;location;lat;lon;timestamp;P1;durP1;ratioP1;P2;durP2;ratioP2
41139;SDS011;26881;48.784;9.192;2023-12-20T00:04:16;1.57;;;1.47;;
41139;SDS011;26881;48.784;9.192;2023-12-20T00:09:38;1.67;;;1.27;;
41139;SDS011;26881;48.784;9.192;2023-12-20T00:15:00;1.60;;;1.50;;
41139;SDS011;26881;48.784;9.192;2023-12-20T00:20:22;1.40;;;1.30;;
41139;SDS011;26881;48.784;9.192;2023-12-20T00:25:44;1.03;;;1.03;;
41139;SDS011;26881;48.784;9.192;2023-12-20T00:31:06;0.90;;;0.90;;
41139;SDS011;26881;48.784;9.192;2023-12-20T00:36:28;1.00;;;1.00;;
41139;SDS011;26881;48.784;9.192;2023-12-20T00:41:50;3.70;;;1.30;;
41139;SDS011;26881;48.784;9.192;2023-12-20T00:47:11;1.30;;;1.20;;
41139;SDS011;26881;48.784;9.192;2023-12-20T00:52:34;1.10;;;1.00;;
41139;SDS011;26881;48.784;9.192;2023-12-20T00:57:56;1.13;;;0.73;;
41139;SDS011;26881;48.784;9.192;2023-12-20T01:03:18;2.93;;;0.80;;
41139;SDS011;26881;48.784;9.192;2023-12-20T01:08:40;0.83;;;0.83;;
41139;SDS011;26881;48.784;9.192;2023-12-20T01:14:02;1.40;;;1.30;;
41139;SDS011;26881;48.784;9.192;2023-12-20T01:19:24;2.20;;;1.30;;
41139;SDS011;26881;48.784;9.192;2023-12-20T01:24:46;1.10;;;1.10;;
41139;SDS011;26881;48.784;9.192;2023-12-20T01:30:08;1.30;;;1.20;;
41139;SDS011;26881;48.784;9.192;2023-12-20T01:35:31;1.40;;;1.30;;
41139;SDS011;26881;48.784;9.192;2023-12-20T01:40:52;1.33;;;1.20;;
41139;SDS011;26881;48.784;9.192;2023-12-20T01:46:14;1.27;;;1.17;;
41139;SDS011;26881;48.784;9.192;2023-12-20T01:51:37;1.03;;;1.03;;
41139;SDS011;26881;48.784;9.192;2023-12-20T01:57:00;1.30;;;1.20;;
41139;SDS011;26881;48.784;9.192;2023-12-20T02:02:22;1.63;;;1.17;;
41139;SDS011;26881;48.784;9.192;2023-12-20T02:07:44;1.10;;;1.10;;
41139;SDS011;26881;48.784;9.192;2023-12-20T02:13:07;1.23;;;1.10;;
41139;SDS011;26881;48.784;9.192;2023-12-20T02:18:29;1.83;;;1.40;;
41139;SDS011;26881;48.784;9.192;2023-12-20T02:23:51;3.30;;;1.00;;
41139;SDS011;26881;48.784;9.192;2023-12-20T02:29:12;1.50;;;1.07;;
41139;SDS011;26881;48.784;9.192;2023-12-20T02:34:34;1.50;;;1.40;;
41139;SDS011;26881;48.784;9.192;2023-12-20T02:39:56;2.20;;;1.40;;
41139;SDS011;26881;48.784;9.192;2023-12-20T02:45:18;1.20;;;1.10;;
41139;SDS011;26881;48.784;9.192;2023-12-20T02:50:40;1.40;;;1.30;;
41139;SDS011;26881;48.784;9.192;2023-12-20T02:56:02;1.47;;;1.20;;
41139;SDS011;26881;48.784;9.192;2023-12-20T03:01:24;3.93;;;1.43;;
41139;SDS011;26881;48.784;9.192;2023-12-20T03:06:46;1.87;;;1.57;;
41139;SDS011;26881;48.784;9.192;2023-12-20T03:12:08;2.93;;;1.40;;
41139;SDS011;26881;48.784;9.192;2023-12-20T03:17:30;1.10;;;1.10;;
41139;SDS011;26881;48.784;9.192;2023-12-20T03:22:52;1.67;;;1.50;;
41139;SDS011;26881;48.784;9.192;2023-12-20T03:28:14;3.53;;;1.23;;
41139;SDS011;26881;48.784;9.192;2023-12-20T03:33:37;1.43;;;1.33;;
41139;SDS011;26881;48.784;9.192;2023-12-20T03:38:59;2.57;;;1.10;;
41139;SDS011;26881;48.784;9.192;2023-12-20T03:44:21;1.83;;;1.27;;
41139;SDS011;26881;48.784;9.192;2023-12-20T03:49:43;0.97;;;0.97;;
41139;SDS011;26881;48.784;9.192;2023-12-20T03:55:05;0.50;;;0.50;;
41139;SDS011;26881;48.784;9.192;2023-12-20T04:00:27;0.40;;;0.40;;
41139;SDS011;26881;48.784;9.192;2023-12-20T04:05:49;0.40;;;0.40;;
41139;SDS011;26881;48.784;9.192;2023-12-20T04:11:11;0.67;;;0.43;;
41139;SDS011;26881;48.784;9.192;2023-12-20T04:16:33;0.50;;;0.30;;
41139;SDS011;26881;48.784;9.192;2023-12-20T04:21:56;0.50;;;0.50;;
41139;SDS011;26881;48.784;9.192;2023-12-20T04:27:18;0.50;;;0.50;;
41139;SDS011;26881;48.784;9.192;2023-12-20T04:32:39;0.50;;;0.50;;
41139;SDS011;26881;48.784;9.192;2023-12-20T04:38:01;1.83;;;0.50;;
41139;SDS011;26881;48.784;9.192;2023-12-20T04:43:23;0.40;;;0.40;;
41139;SDS011;26881;48.784;9.192;2023-12-20T04:48:46;1.03;;;0.50;;
41139;SDS011;26881;48.784;9.192;2023-12-20T04:54:08;0.77;;;0.77;;
41139;SDS011;26881;48.784;9.192;2023-12-20T04:59:31;2.83;;;0.93;;
41139;SDS011;26881;48.784;9.192;2023-12-20T05:04:53;1.20;;;0.80;;
41139;SDS011;26881;48.784;9.192;2023-12-20T05:10:16;2.23;;;1.00;;
41139;SDS011;26881;48.784;9.192;2023-12-20T05:15:38;0.77;;;0.50;;
41139;SDS011;26881;48.784;9.192;2023-12-20T05:21:00;0.40;;;0.40;;
41139;SDS011;26881;48.784;9.192;2023-12-20T05:26:22;1.43;;;0.40;;
41139;SDS011;26881;48.784;9.192;2023-12-20T05:31:44;0.50;;;0.40;;
41139;SDS011;26881;48.784;9.192;2023-12-20T05:37:06;0.30;;;0.30;;
41139;SDS011;26881;48.784;9.192;2023-12-20T05:42:28;0.30;;;0.30;;
41139;SDS011;26881;48.784;9.192;2023-12-20T05:47:50;0.80;;;0.53;;
41139;SDS011;26881;48.784;9.192;2023-12-20T05:53:12;0.63;;;0.40;;
41139;SDS011;26881;48.784;9.192;2023-12-20T05:58:33;3.23;;;0.70;;
41139;SDS011;26881;48.784;9.192;2023-12-20T06:03:55;1.70;;;0.63;;
41139;SDS011;26881;48.784;9.192;2023-12-20T06:09:17;1.60;;;0.67;;
41139;SDS011;26881;48.784;9.192;2023-12-20T06:14:39;0.70;;;0.50;;
41139;SDS011;26881;48.784;9.192;2023-12-20T06:20:01;1.53;;;0.73;;
41139;SDS011;26881;48.784;9.192;2023-12-20T06:25:24;1.17;;;0.70;;
41139;SDS011;26881;48.784;9.192;2023-12-20T06:30:46;0.60;;;0.60;;
41139;SDS011;26881;48.784;9.192;2023-12-20T06:36:11;1.20;;;0.70;;
41139;SDS011;26881;48.784;9.192;2023-12-20T06:41:34;0.73;;;0.73;;
41139;SDS011;26881;48.784;9.192;2023-12-20T06:46:56;1.30;;;0.90;;
41139;SDS011;26881;48.784;9.192;2023-12-20T06:52:18;1.70;;;1.10;;
41139;SDS011;26881;48.784;9.192;2023-12-20T06:57:40;2.53;;;1.00;;
41139;SDS011;26881;48.784;9.192;2023-12-20T07:03:02;3.33;;;1.70;;
41139;SDS011;26881;48.784;9.192;2023-12-20T07:08:25;2.27;;;1.70;;
41139;SDS011;26881;48.784;9.192;2023-12-20T07:13:47;2.20;;;1.43;;
41139;SDS011;26881;48.784;9.192;2023-12-20T07:19:09;1.60;;;1.30;;
41139;SDS011;26881;48.784;9.192;2023-12-20T07:24:31;2.00;;;1.70;;
41139;SDS011;26881;48.784;9.192;2023-12-20T07:29:53;4.77;;;1.70;;
41139;SDS011;26881;48.784;9.192;2023-12-20T07:35:15;1.67;;;1.57;;
41139;SDS011;26881;48.784;9.192;2023-12-20T07:40:38;1.60;;;1.50;;
41139;SDS011;26881;48.784;9.192;2023-12-20T07:46:04;1.70;;;1.60;;
41139;SDS011;26881;48.784;9.192;2023-12-20T07:51:27;1.70;;;1.60;;
41139;SDS011;26881;48.784;9.192;2023-12-20T07:56:49;3.07;;;2.00;;
41139;SDS011;26881;48.784;9.192;2023-12-20T08:02:11;2.60;;;2.00;;
41139;SDS011;26881;48.784;9.192;2023-12-20T08:07:33;2.80;;;2.40;;
41139;SDS011;26881;48.784;9.192;2023-12-20T08:12:55;3.37;;;2.20;;
41139;SDS011;26881;48.784;9.192;2023-12-20T08:18:17;2.20;;;2.00;;
41139;SDS011;26881;48.784;9.192;2023-12-20T08:23:40;4.60;;;2.00;;
41139;SDS011;26881;48.784;9.192;2023-12-20T08:29:01;2.43;;;2.23;;
41139;SDS011;26881;48.784;9.192;2023-12-20T08:34:23;4.67;;;2.70;;
41139;SDS011;26881;48.784;9.192;2023-12-20T08:39:46;3.37;;;2.50;;
41139;SDS011;26881;48.784;9.192;2023-12-20T08:45:08;5.47;;;2.20;;
41139;SDS011;26881;48.784;9.192;2023-12-20T08:50:30;2.30;;;2.10;;
41139;SDS011;26881;48.784;9.192;2023-12-20T08:55:53;3.70;;;2.33;;
41139;SDS011;26881;48.784;9.192;2023-12-20T09:01:14;3.80;;;1.93;;
41139;SDS011;26881;48.784;9.192;2023-12-20T09:06:37;4.97;;;2.00;;
41139;SDS011;26881;48.784;9.192;2023-12-20T09:11:59;5.13;;;2.00;;
41139;SDS011;26881;48.784;9.192;2023-12-20T09:17:21;4.83;;;2.37;;
41139;SDS011;26881;48.784;9.192;2023-12-20T09:22:44;3.47;;;2.60;;
41139;SDS011;26881;48.784;9.192;2023-12-20T09:28:08;4.23;;;2.40;;
41139;SDS011;26881;48.784;9.192;2023-12-20T09:33:30;3.07;;;2.50;;
41139;SDS011;26881;48.784;9.192;2023-12-20T09:38:52;5.77;;;1.80;;
41139;SDS011;26881;48.784;9.192;2023-12-20T09:44:15;3.60;;;1.83;;
41139;SDS011;26881;48.784;9.192;2023-12-20T09:49:41;2.93;;;1.53;;
41139;SDS011;26881;48.784;9.192;2023-12-20T09:55:05;5.67;;;2.07;;
41139;SDS011;26881;48.784;9.192;2023-12-20T10:00:29;10.27;;;1.80;;
41139;SDS011;26881;48.784;9.192;2023-12-20T10:05:52;8.20;;;1.33;;
41139;SDS011;26881;48.784;9.192;2023-12-20T10:11:17;5.80;;;2.00;;
41139;SDS011;26881;48.784;9.192;2023-12-20T10:16:40;4.70;;;1.57;;
41139;SDS011;26881;48.784;9.192;2023-12-20T10:22:04;5.50;;;1.73;;
41139;SDS011;26881;48.784;9.192;2023-12-20T10:27:26;5.70;;;1.77;;
41139;SDS011;26881;48.784;9.192;2023-12-20T10:32:48;4.60;;;1.53;;
41139;SDS011;26881;48.784;9.192;2023-12-20T10:38:10;6.87;;;1.80;;
41139;SDS011;26881;48.784;9.192;2023-12-20T10:43:35;7.23;;;1.67;;
41139;SDS011;26881;48.784;9.192;2023-12-20T10:48:58;7.23;;;1.97;;
41139;SDS011;26881;48.784;9.192;2023-12-20T10:54:23;8.13;;;1.53;;
41139;SDS011;26881;48.784;9.192;2023-12-20T10:59:45;7.97;;;1.67;;
41139;SDS011;26881;48.784;9.192;2023-12-20T11:16:07;7.33;;;1.60;;
41139;SDS011;26881;48.784;9.192;2023-12-20T11:21:30;10.17;;;1.73;;
41139;SDS011;26881;48.784;9.192;2023-12-20T11:26:55;7.23;;;1.77;;
41139;SDS011;26881;48.784;9.192;2023-12-20T11:37:45;8.80;;;2.00;;
41139;SDS011;26881;48.784;9.192;2023-12-20T11:43:11;6.00;;;1.20;;
41139;SDS011;26881;48.784;9.192;2023-12-20T11:48:37;7.07;;;2.00;;
41139;SDS011;26881;48.784;9.192;2023-12-20T11:54:00;6.63;;;1.80;;
41139;SDS011;26881;48.784;9.192;2023-12-20T11:59:22;4.80;;;1.40;;
41139;SDS011;26881;48.784;9.192;2023-12-20T12:04:45;10.27;;;1.87;;
41139;SDS011;26881;48.784;9.192;2023-12-20T12:10:07;7.57;;;2.00;;
41139;SDS011;26881;48.784;9.192;2023-12-20T12:15:29;7.23;;;1.90;;
41139;SDS011;26881;48.784;9.192;2023-12-20T12:20:59;4.43;;;1.90;;
41139;SDS011;26881;48.784;9.192;2023-12-20T12:26:24;7.40;;;2.33;;
41139;SDS011;26881;48.784;9.192;2023-12-20T12:31:46;6.20;;;1.90;;
41139;SDS011;26881;48.784;9.192;2023-12-20T12:37:08;4.20;;;1.60;;
41139;SDS011;26881;48.784;9.192;2023-12-20T12:42:30;6.90;;;2.27;;
41139;SDS011;26881;48.784;9.192;2023-12-20T12:47:52;8.60;;;1.73;;
41139;SDS011;26881;48.784;9.192;2023-12-20T12:53:16;6.43;;;1.40;;
41139;SDS011;26881;48.784;9.192;2023-12-20T12:58:38;6.60;;;1.90;;
41139;SDS011;26881;48.784;9.192;2023-12-20T13:04:00;5.50;;;1.67;;
41139;SDS011;26881;48.784;9.192;2023-12-20T13:09:25;6.43;;;1.80;;
41139;SDS011;26881;48.784;9.192;2023-12-20T13:14:47;6.73;;;1.63;;
41139;SDS011;26881;48.784;9.192;2023-12-20T13:20:08;3.47;;;1.43;;
41139;SDS011;26881;48.784;9.192;2023-12-20T13:25:30;3.00;;;1.30;;
41139;SDS011;26881;48.784;9.192;2023-12-20T13:30:52;9.87;;;1.47;;
41139;SDS011;26881;48.784;9.192;2023-12-20T13:36:14;5.80;;;1.37;;
41139;SDS011;26881;48.784;9.192;2023-12-20T13:41:36;5.10;;;1.37;;
41139;SDS011;26881;48.784;9.192;2023-12-20T13:46:58;4.33;;;1.40;;
41139;SDS011;26881;48.784;9.192;2023-12-20T13:52:20;5.17;;;1.60;;
41139;SDS011;26881;48.784;9.192;2023-12-20T13:57:42;5.13;;;1.43;;
41139;SDS011;26881;48.784;9.192;2023-12-20T14:03:16;3.67;;;1.27;;
41139;SDS011;26881;48.784;9.192;2023-12-20T14:08:37;10.53;;;1.53;;
41139;SDS011;26881;48.784;9.192;2023-12-20T14:13:59;7.33;;;1.80;;
41139;SDS011;26881;48.784;9.192;2023-12-20T14:19:23;5.73;;;1.70;;
41139;SDS011;26881;48.784;9.192;2023-12-20T14:24:45;6.13;;;2.10;;
41139;SDS011;26881;48.784;9.192;2023-12-20T14:30:07;9.17;;;1.80;;
41139;SDS011;26881;48.784;9.192;2023-12-20T14:35:29;5.23;;;1.50;;
41139;SDS011;26881;48.784;9.192;2023-12-20T14:40:51;6.07;;;1.50;;
41139;SDS011;26881;48.784;9.192;2023-12-20T14:46:13;5.37;;;1.67;;
41139;SDS011;26881;48.784;9.192;2023-12-20T14:51:35;5.77;;;1.70;;
41139;SDS011;26881;48.784;9.192;2023-12-20T14:56:59;5.60;;;1.80;;
41139;SDS011;26881;48.784;9.192;2023-12-20T15:02:26;3.10;;;1.97;;
41139;SDS011;26881;48.784;9.192;2023-12-20T15:07:48;4.03;;;1.70;;
41139;SDS011;26881;48.784;9.192;2023-12-20T15:13:10;3.73;;;1.70;;
41139;SDS011;26881;48.784;9.192;2023-12-20T15:18:34;7.90;;;1.60;;
41139;SDS011;26881;48.784;9.192;2023-12-20T15:23:55;8.07;;;1.80;;
41139;SDS011;26881;48.784;9.192;2023-12-20T15:29:27;6.60;;;1.80;;
41139;SDS011;26881;48.784;9.192;2023-12-20T15:34:49;6.77;;;2.33;;
41139;SDS011;26881;48.784;9.192;2023-12-20T15:40:11;6.57;;;1.43;;
41139;SDS011;26881;48.784;9.192;2023-12-20T15:45:33;6.53;;;1.90;;
41139;SDS011;26881;48.784;9.192;2023-12-20T15:50:56;5.43;;;1.63;;
41139;SDS011;26881;48.784;9.192;2023-12-20T15:56:18;4.17;;;1.87;;
41139;SDS011;26881;48.784;9.192;2023-12-20T16:01:40;5.10;;;1.53;;
41139;SDS011;26881;48.784;9.192;2023-12-20T16:07:14;7.73;;;1.87;;
41139;SDS011;26881;48.784;9.192;2023-12-20T16:12:36;9.80;;;4.17;;
41139;SDS011;26881;48.784;9.192;2023-12-20T16:17:57;8.30;;;6.70;;
41139;SDS011;26881;48.784;9.192;2023-12-20T16:23:20;6.70;;;3.33;;
41139;SDS011;26881;48.784;9.192;2023-12-20T16:28:41;5.33;;;2.03;;
41139;SDS011;26881;48.784;9.192;2023-12-20T16:34:03;6.67;;;2.30;;
41139;SDS011;26881;48.784;9.192;2023-12-20T16:39:28;6.53;;;1.87;;
41139;SDS011;26881;48.784;9.192;2023-12-20T16:44:50;5.50;;;2.20;;
41139;SDS011;26881;48.784;9.192;2023-12-20T16:50:12;7.03;;;1.97;;
41139;SDS011;26881;48.784;9.192;2023-12-20T16:55:34;6.10;;;2.30;;
41139;SDS011;26881;48.784;9.192;2023-12-20T17:00:56;5.07;;;1.90;;
41139;SDS011;26881;48.784;9.192;2023-12-20T17:06:18;7.10;;;1.93;;
41139;SDS011;26881;48.784;9.192;2023-12-20T17:11:47;4.07;;;2.13;;
41139;SDS011;26881;48.784;9.192;2023-12-20T17:17:09;3.73;;;1.30;;
41139;SDS011;26881;48.784;9.192;2023-12-20T17:22:31;3.93;;;1.70;;
41139;SDS011;26881;48.784;9.192;2023-12-20T17:27:53;3.53;;;1.60;;
41139;SDS011;26881;48.784;9.192;2023-12-20T17:33:15;4.20;;;1.50;;
41139;SDS011;26881;48.784;9.192;2023-12-20T17:38:37;4.50;;;2.00;;
41139;SDS011;26881;48.784;9.192;2023-12-20T17:44:01;5.10;;;2.00;;
41139;SDS011;26881;48.784;9.192;2023-12-20T17:49:33;3.90;;;2.10;;
41139;SDS011;26881;48.784;9.192;2023-12-20T17:54:58;7.97;;;2.23;;
41139;SDS011;26881;48.784;9.192;2023-12-20T18:00:21;6.80;;;1.90;;
41139;SDS011;26881;48.784;9.192;2023-12-20T18:05:46;6.40;;;4.00;;
41139;SDS011;26881;48.784;9.192;2023-12-20T18:11:09;4.63;;;2.20;;
41139;SDS011;26881;48.784;9.192;2023-12-20T18:16:31;4.57;;;2.20;;
41139;SDS011;26881;48.784;9.192;2023-12-20T18:21:56;5.13;;;2.17;;
41139;SDS011;26881;48.784;9.192;2023-12-20T18:27:19;3.50;;;1.73;;
41139;SDS011;26881;48.784;9.192;2023-12-20T18:32:41;3.40;;;1.47;;
41139;SDS011;26881;48.784;9.192;2023-12-20T18:38:03;3.97;;;1.70;;
41139;SDS011;26881;48.784;9.192;2023-12-20T18:43:25;3.33;;;1.57;;
41139;SDS011;26881;48.784;9.192;2023-12-20T18:48:48;5.50;;;1.93;;
41139;SDS011;26881;48.784;9.192;2023-12-20T18:54:10;4.50;;;1.93;;
41139;SDS011;26881;48.784;9.192;2023-12-20T18:59:31;3.73;;;1.87;;
41139;SDS011;26881;48.784;9.192;2023-12-20T19:04:53;4.90;;;2.00;;
41139;SDS011;26881;48.784;9.192;2023-12-20T19:10:15;7.87;;;2.63;;
41139;SDS011;26881;48.784;9.192;2023-12-20T19:15:37;4.47;;;2.23;;
41139;SDS011;26881;48.784;9.192;2023-12-20T19:20:59;4.80;;;1.93;;
41139;SDS011;26881;48.784;9.192;2023-12-20T19:26:21;5.37;;;2.10;;
41139;SDS011;26881;48.784;9.192;2023-12-20T19:31:43;8.37;;;2.07;;
41139;SDS011;26881;48.784;9.192;2023-12-20T19:37:08;5.00;;;2.03;;
41139;SDS011;26881;48.784;9.192;2023-12-20T19:42:31;3.57;;;1.63;;
41139;SDS011;26881;48.784;9.192;2023-12-20T19:47:53;5.87;;;2.20;;
41139;SDS011;26881;48.784;9.192;2023-12-20T19:53:15;4.97;;;2.10;;
41139;SDS011;26881;48.784;9.192;2023-12-20T19:58:37;5.93;;;2.10;;
41139;SDS011;26881;48.784;9.192;2023-12-20T20:04:00;4.43;;;1.90;;
41139;SDS011;26881;48.784;9.192;2023-12-20T20:09:22;7.63;;;2.10;;
41139;SDS011;26881;48.784;9.192;2023-12-20T20:14:44;5.47;;;2.20;;
41139;SDS011;26881;48.784;9.192;2023-12-20T20:20:06;6.97;;;3.27;;
41139;SDS011;26881;48.784;9.192;2023-12-20T20:25:29;6.90;;;3.57;;
41139;SDS011;26881;48.784;9.192;2023-12-20T20:30:50;3.97;;;1.87;;
41139;SDS011;26881;48.784;9.192;2023-12-20T20:36:12;5.57;;;1.90;;
41139;SDS011;26881;48.784;9.192;2023-12-20T20:41:34;5.63;;;1.70;;
41139;SDS011;26881;48.784;9.192;2023-12-20T20:46:56;4.17;;;1.87;;
41139;SDS011;26881;48.784;9.192;2023-12-20T20:52:18;4.37;;;1.80;;
41139;SDS011;26881;48.784;9.192;2023-12-20T20:57:40;6.10;;;2.50;;
41139;SDS011;26881;48.784;9.192;2023-12-20T21:03:03;5.53;;;1.90;;
41139;SDS011;26881;48.784;9.192;2023-12-20T21:08:25;3.37;;;1.40;;
41139;SDS011;26881;48.784;9.192;2023-12-20T21:13:47;3.87;;;1.50;;
41139;SDS011;26881;48.784;9.192;2023-12-20T21:19:09;5.40;;;1.73;;
41139;SDS011;26881;48.784;9.192;2023-12-20T21:24:31;6.73;;;1.50;;
41139;SDS011;26881;48.784;9.192;2023-12-20T21:29:53;5.23;;;1.50;;
41139;SDS011;26881;48.784;9.192;2023-12-20T21:35:15;5.90;;;1.53;;
41139;SDS011;26881;48.784;9.192;2023-12-20T21:40:37;6.70;;;1.77;;
41139;SDS011;26881;48.784;9.192;2023-12-20T21:45:59;3.60;;;1.20;;
41139;SDS011;26881;48.784;9.192;2023-12-20T21:51:24;3.13;;;1.13;;
41139;SDS011;26881;48.784;9.192;2023-12-20T21:56:47;3.03;;;1.27;;
41139;SDS011;26881;48.784;9.192;2023-12-20T22:02:11;3.43;;;1.50;;
41139;SDS011;26881;48.784;9.192;2023-12-20T22:07:33;6.07;;;1.40;;
41139;SDS011;26881;48.784;9.192;2023-12-20T22:12:55;2.47;;;1.43;;
41139;SDS011;26881;48.784;9.192;2023-12-20T22:18:17;2.50;;;1.37;;
41139;SDS011;26881;48.784;9.192;2023-12-20T22:23:39;1.90;;;1.20;;
41139;SDS011;26881;48.784;9.192;2023-12-20T22:29:01;2.37;;;1.40;;
41139;SDS011;26881;48.784;9.192;2023-12-20T22:34:23;2.00;;;1.10;;
41139;SDS011;26881;48.784;9.192;2023-12-20T22:39:45;2.30;;;1.13;;
41139;SDS011;26881;48.784;9.192;2023-12-20T22:45:07;3.20;;;1.43;;
41139;SDS011;26881;48.784;9.192;2023-12-20T22:50:30;4.40;;;1.50;;
41139;SDS011;26881;48.784;9.192;2023-12-20T22:55:52;2.93;;;1.50;;
41139;SDS011;26881;48.784;9.192;2023-12-20T23:01:13;4.47;;;1.60;;
41139;SDS011;26881;48.784;9.192;2023-12-20T23:06:38;4.60;;;1.53;;
41139;SDS011;26881;48.784;9.192;2023-12-20T23:12:00;2.87;;;1.40;;
41139;SDS011;26881;48.784;9.192;2023-12-20T23:17:22;2.60;;;1.20;;
41139;SDS011;26881;48.784;9.192;2023-12-20T23:22:44;3.13;;;1.60;;
41139;SDS011;26881;48.784;9.192;2023-12-20T23:28:06;6.23;;;2.33;;
41139;SDS011;26881;48.784;9.192;2023-12-20T23:33:28;2.07;;;1.37;;
41139;SDS011;26881;48.784;9.192;2023-12-20T23:38:50;2.03;;;1.20;;
41139;SDS011;26881;48.784;9.192;2023-12-20T23:44:12;3.83;;;1.20;;
41139;SDS011;26881;48.784;9.192;2023-12-20T23:49:34;2.13;;;1.27;;
41139;SDS011;26881;48.784;9.192;2023-12-20T23:54:56;3.40;;;1.10;;
